Time;durP1;ratioP1;P1;durP2;ratioP2;P2;SDS_P1;SDS_P2;PMS_P1;PMS_P2;Temp;Humidity;BMP_temperature;BMP_pressure;BME280_temperature;BME280_humidity;BME280_pressure;Samples;Min_cycle;Max_cycle;Signal;HPM_P1;HPM_P2
2023/05/02 00:02:46;;;;;;;1.55;1.10;;;;;;;;;;6213560;28;20601;-75
2023/05/02 00:05:52;;;;;;;0.88;0.88;;;;;;;;;;6213584;28;20297;-75
2023/05/02 00:08:57;;;;;;;0.80;0.80;;;;;;;;;;6213905;28;20297;-75
2023/05/02 00:12:04;;;;;;;0.80;0.80;;;;;;;;;;6226726;28;20300;-75
2023/05/02 00:15:10;;;;;;;0.98;0.98;;;;;;;;;;6237572;28;20443;-76
2023/05/02 00:18:15;;;;;;;0.75;0.75;;;;;;;;;;6238336;28;20587;-75
2023/05/02 00:21:20;;;;;;;0.60;0.57;;;;;;;;;;6236794;28;20304;-74
2023/05/02 00:24:26;;;;;;;0.70;0.70;;;;;;;;;;6237392;28;20297;-75
2023/05/02 00:27:33;;;;;;;0.68;0.68;;;;;;;;;;6237756;28;20292;-74
2023/05/02 00:30:42;;;;;;;0.60;0.60;;;;;;;;;;6236716;28;20296;-76
2023/05/02 00:33:48;;;;;;;0.60;0.60;;;;;;;;;;6232260;28;20289;-75
2023/05/02 00:36:53;;;;;;;0.65;0.65;;;;;;;;;;6237567;28;20296;-76
2023/05/02 00:39:58;;;;;;;0.70;0.70;;;;;;;;;;6237189;28;20292;-76
2023/05/02 00:43:05;;;;;;;0.70;0.70;;;;;;;;;;6252534;28;20525;-75
2023/05/02 00:46:11;;;;;;;0.70;0.70;;;;;;;;;;6237310;28;20296;-76
2023/05/02 00:49:17;;;;;;;0.60;0.60;;;;;;;;;;6236797;28;20301;-75
2023/05/02 00:52:22;;;;;;;0.63;0.63;;;;;;;;;;6234045;28;20296;-76
2023/05/02 00:55:27;;;;;;;0.70;0.70;;;;;;;;;;6235583;28;20356;-76
2023/05/02 00:58:34;;;;;;;2.92;0.70;;;;;;;;;;6235400;28;20273;-75
2023/05/02 01:01:48;;;;;;;0.60;0.60;;;;;;;;;;6236411;28;20304;-75
2023/05/02 01:05:01;;;;;;;0.60;0.60;;;;;;;;;;6236400;28;20284;-75
2023/05/02 01:08:13;;;;;;;1.13;0.75;;;;;;;;;;6219179;28;20292;-75
2023/05/02 01:11:28;;;;;;;0.70;0.70;;;;;;;;;;6218833;28;20292;-76
2023/05/02 01:14:40;;;;;;;0.60;0.60;;;;;;;;;;6236509;28;20313;-75
2023/05/02 01:17:46;;;;;;;0.60;0.60;;;;;;;;;;6236561;28;20289;-75
2023/05/02 01:20:56;;;;;;;0.70;0.70;;;;;;;;;;6235856;28;20300;-76
2023/05/02 01:24:05;;;;;;;1.65;0.70;;;;;;;;;;6236467;28;20296;-75
2023/05/02 01:27:18;;;;;;;0.70;0.70;;;;;;;;;;6218778;28;20478;-76
2023/05/02 01:30:26;;;;;;;0.90;0.90;;;;;;;;;;6218706;28;20296;-76
2023/05/02 01:33:32;;;;;;;0.85;0.85;;;;;;;;;;6228045;28;20437;-76
2023/05/02 01:36:42;;;;;;;0.90;0.90;;;;;;;;;;6235054;28;20292;-76
2023/05/02 01:39:48;;;;;;;0.82;0.82;;;;;;;;;;6235819;28;20304;-76
2023/05/02 01:42:54;;;;;;;0.73;0.73;;;;;;;;;;6250659;28;20316;-74
2023/05/02 01:46:03;;;;;;;0.73;0.73;;;;;;;;;;6251250;28;20297;-76
2023/05/02 01:49:08;;;;;;;0.70;0.70;;;;;;;;;;6236207;28;20494;-75
2023/05/02 01:52:16;;;;;;;0.80;0.80;;;;;;;;;;6235127;28;20292;-76
2023/05/02 01:55:22;;;;;;;0.68;0.68;;;;;;;;;;6208742;28;20293;-76
2023/05/02 01:58:28;;;;;;;0.90;0.90;;;;;;;;;;6232699;28;20273;-75
2023/05/02 02:01:36;;;;;;;0.90;0.90;;;;;;;;;;6210604;28;20479;-75
2023/05/02 02:04:42;;;;;;;0.80;0.80;;;;;;;;;;6210708;28;20306;-75
2023/05/02 02:07:48;;;;;;;0.60;0.60;;;;;;;;;;6210197;28;20300;-76
2023/05/02 02:10:57;;;;;;;0.70;0.70;;;;;;;;;;6201609;28;20281;-76
2023/05/02 02:14:06;;;;;;;0.80;0.80;;;;;;;;;;6202050;28;20294;-75
2023/05/02 02:17:17;;;;;;;0.85;0.85;;;;;;;;;;6201129;28;20294;-76
2023/05/02 02:20:23;;;;;;;0.80;0.80;;;;;;;;;;6201329;28;20463;-77
2023/05/02 02:23:29;;;;;;;0.90;0.90;;;;;;;;;;6186854;28;20298;-75
2023/05/02 02:26:35;;;;;;;0.80;0.80;;;;;;;;;;6201088;28;20479;-75
2023/05/02 02:29:40;;;;;;;0.82;0.82;;;;;;;;;;6186498;28;20306;-75
2023/05/02 02:32:47;;;;;;;0.80;0.80;;;;;;;;;;6201534;28;20290;-76
2023/05/02 02:35:58;;;;;;;0.80;0.80;;;;;;;;;;6186805;28;20297;-75
2023/05/02 02:39:12;;;;;;;0.85;0.85;;;;;;;;;;6201714;28;20306;-74
2023/05/02 02:42:26;;;;;;;0.90;0.90;;;;;;;;;;6234687;28;20304;-75
2023/05/02 02:45:37;;;;;;;0.90;0.90;;;;;;;;;;6250314;28;20592;-75
2023/05/02 02:48:48;;;;;;;1.00;1.00;;;;;;;;;;6250677;28;20296;-76
2023/05/02 02:51:58;;;;;;;1.00;1.00;;;;;;;;;;6235577;28;20371;-76
2023/05/02 02:55:11;;;;;;;0.80;0.80;;;;;;;;;;6208573;28;20302;-75
2023/05/02 02:58:22;;;;;;;0.90;0.90;;;;;;;;;;6230237;28;20293;-76
2023/05/02 03:01:30;;;;;;;0.80;0.80;;;;;;;;;;6225160;28;20300;-75
2023/05/02 03:04:39;;;;;;;0.90;0.90;;;;;;;;;;6187526;28;20358;-77
2023/05/02 03:07:44;;;;;;;0.90;0.90;;;;;;;;;;6206477;28;20302;-77
2023/05/02 03:10:50;;;;;;;0.73;0.73;;;;;;;;;;6191376;28;20297;-75
2023/05/02 03:13:55;;;;;;;0.90;0.90;;;;;;;;;;6190013;28;20293;-76
2023/05/02 03:17:01;;;;;;;0.60;0.60;;;;;;;;;;6222540;28;20309;-75
2023/05/02 03:20:09;;;;;;;0.70;0.70;;;;;;;;;;6190606;28;20285;-76
2023/05/02 03:23:15;;;;;;;0.87;0.87;;;;;;;;;;6191150;28;20294;-75
2023/05/02 03:26:21;;;;;;;0.80;0.80;;;;;;;;;;6189142;28;20292;-76
2023/05/02 03:29:28;;;;;;;0.70;0.70;;;;;;;;;;6204949;28;20489;-76
2023/05/02 03:32:33;;;;;;;0.70;0.70;;;;;;;;;;6189464;28;20290;-76
2023/05/02 03:35:41;;;;;;;0.70;0.70;;;;;;;;;;6189929;28;20290;-75
2023/05/02 03:38:48;;;;;;;0.70;0.70;;;;;;;;;;6189019;28;20297;-75
2023/05/02 03:41:53;;;;;;;0.70;0.70;;;;;;;;;;6189170;28;20305;-75
2023/05/02 03:45:00;;;;;;;0.70;0.70;;;;;;;;;;6209047;28;20342;-75
2023/05/02 03:48:06;;;;;;;0.90;0.90;;;;;;;;;;6180450;28;20290;-76
2023/05/02 03:51:13;;;;;;;0.70;0.70;;;;;;;;;;6198422;28;20298;-75
2023/05/02 03:54:21;;;;;;;0.90;0.90;;;;;;;;;;6221187;28;20393;-76
2023/05/02 03:57:29;;;;;;;0.77;0.77;;;;;;;;;;6214111;28;20292;-75
2023/05/02 04:00:37;;;;;;;0.63;0.63;;;;;;;;;;6220682;28;20302;-75
2023/05/02 04:03:44;;;;;;;0.90;0.90;;;;;;;;;;6235645;28;20312;-76
2023/05/02 04:06:53;;;;;;;0.80;0.80;;;;;;;;;;6241473;28;20459;-75
2023/05/02 04:09:59;;;;;;;0.90;0.90;;;;;;;;;;6242010;28;20294;-75
2023/05/02 04:13:07;;;;;;;0.80;0.80;;;;;;;;;;6230947;28;20311;-74
2023/05/02 04:16:14;;;;;;;1.00;1.00;;;;;;;;;;6212291;28;20303;-75
2023/05/02 04:19:20;;;;;;;0.80;0.80;;;;;;;;;;6212229;28;20300;-76
2023/05/02 04:22:27;;;;;;;0.93;0.93;;;;;;;;;;6228350;28;20271;-75
2023/05/02 04:25:36;;;;;;;0.90;0.90;;;;;;;;;;6205876;28;20307;-75
2023/05/02 04:28:41;;;;;;;1.00;1.00;;;;;;;;;;6212967;28;20271;-77
2023/05/02 04:31:50;;;;;;;0.90;0.90;;;;;;;;;;6212405;28;20297;-75
2023/05/02 04:34:55;;;;;;;0.90;0.90;;;;;;;;;;6212059;28;20297;-77
2023/05/02 04:38:02;;;;;;;1.00;1.00;;;;;;;;;;6212460;28;20448;-77
2023/05/02 04:41:08;;;;;;;1.00;1.00;;;;;;;;;;6211867;28;20495;-75
2023/05/02 04:44:21;;;;;;;1.10;1.10;;;;;;;;;;6211630;28;20297;-75
2023/05/02 04:47:26;;;;;;;0.90;0.90;;;;;;;;;;6228461;28;20288;-75
2023/05/02 04:50:32;;;;;;;1.10;1.10;;;;;;;;;;6212529;28;20459;-75
2023/05/02 04:53:38;;;;;;;1.67;1.00;;;;;;;;;;6211481;28;20584;-75
2023/05/02 04:56:44;;;;;;;1.10;1.10;;;;;;;;;;6198928;28;20300;-75
2023/05/02 04:59:49;;;;;;;1.10;1.10;;;;;;;;;;6216696;28;20301;-74
2023/05/02 05:02:55;;;;;;;1.20;1.20;;;;;;;;;;6199326;28;20304;-75
2023/05/02 05:06:03;;;;;;;1.20;1.20;;;;;;;;;;6220092;28;20584;-75
2023/05/02 05:09:09;;;;;;;1.13;1.10;;;;;;;;;;6202704;28;20638;-77
2023/05/02 05:12:15;;;;;;;1.20;1.20;;;;;;;;;;6188149;28;20298;-75
2023/05/02 05:15:22;;;;;;;1.33;1.33;;;;;;;;;;6162800;28;20494;-75
2023/05/02 05:18:39;;;;;;;1.30;1.30;;;;;;;;;;6163386;28;20290;-75
2023/05/02 05:21:46;;;;;;;1.37;1.37;;;;;;;;;;6163447;28;20586;-75
2023/05/02 05:24:56;;;;;;;1.47;1.47;;;;;;;;;;6162660;28;20412;-75
2023/05/02 05:28:06;;;;;;;1.20;1.20;;;;;;;;;;6163185;28;20364;-75
2023/05/02 05:31:15;;;;;;;1.30;1.30;;;;;;;;;;6178692;28;20334;-75
2023/05/02 05:34:24;;;;;;;1.47;1.47;;;;;;;;;;6161741;28;20480;-75
2023/05/02 05:37:33;;;;;;;1.40;1.40;;;;;;;;;;6179364;28;20469;-75
2023/05/02 05:40:40;;;;;;;1.10;1.10;;;;;;;;;;6162176;28;20298;-75
2023/05/02 05:43:46;;;;;;;1.50;1.50;;;;;;;;;;6178511;28;20289;-74
2023/05/02 05:46:53;;;;;;;2.10;1.30;;;;;;;;;;6162961;28;20472;-75
2023/05/02 05:50:00;;;;;;;1.33;1.33;;;;;;;;;;6162808;28;20305;-75
2023/05/02 05:53:07;;;;;;;1.30;1.30;;;;;;;;;;6187847;28;20497;-75
2023/05/02 05:56:17;;;;;;;1.30;1.30;;;;;;;;;;6202600;28;20396;-74
2023/05/02 05:59:32;;;;;;;1.30;1.30;;;;;;;;;;6185956;28;20300;-75
2023/05/02 06:02:37;;;;;;;1.50;1.50;;;;;;;;;;6194612;28;20600;-75
2023/05/02 06:05:43;;;;;;;1.50;1.50;;;;;;;;;;6184817;28;20431;-75
2023/05/02 06:08:49;;;;;;;1.60;1.60;;;;;;;;;;6164080;28;20309;-76
2023/05/02 06:11:55;;;;;;;1.47;1.47;;;;;;;;;;6186583;28;20599;-75
2023/05/02 06:15:01;;;;;;;1.70;1.70;;;;;;;;;;6189693;28;20500;-76
2023/05/02 06:18:06;;;;;;;1.30;1.30;;;;;;;;;;6193088;28;20486;-75
2023/05/02 06:21:12;;;;;;;1.57;1.57;;;;;;;;;;6185494;28;20309;-77
2023/05/02 06:24:18;;;;;;;1.53;1.53;;;;;;;;;;6185745;28;20484;-75
2023/05/02 06:27:25;;;;;;;1.93;1.60;;;;;;;;;;6220603;28;20299;-75
2023/05/02 06:30:31;;;;;;;1.50;1.50;;;;;;;;;;6192145;28;20596;-73
2023/05/02 06:33:36;;;;;;;1.67;1.67;;;;;;;;;;6192549;28;20303;-78
2023/05/02 06:36:41;;;;;;;1.37;1.37;;;;;;;;;;6192803;28;20304;-74
2023/05/02 06:39:46;;;;;;;1.47;1.47;;;;;;;;;;6192140;28;20301;-75
2023/05/02 06:42:53;;;;;;;1.60;1.60;;;;;;;;;;6207062;28;20297;-76
2023/05/02 06:45:58;;;;;;;1.40;1.40;;;;;;;;;;6192008;28;20328;-74
2023/05/02 06:49:03;;;;;;;1.73;1.63;;;;;;;;;;6191493;28;20297;-76
2023/05/02 06:52:08;;;;;;;1.33;1.33;;;;;;;;;;6192042;28;20483;-76
2023/05/02 06:55:13;;;;;;;1.40;1.40;;;;;;;;;;6191351;28;20303;-75
2023/05/02 06:58:20;;;;;;;1.50;1.50;;;;;;;;;;6191568;28;20297;-78
2023/05/02 07:01:25;;;;;;;1.70;1.70;;;;;;;;;;6190174;28;20473;-79
2023/05/02 07:04:30;;;;;;;1.60;1.60;;;;;;;;;;6223239;28;20292;-79
2023/05/02 07:07:35;;;;;;;1.40;1.40;;;;;;;;;;6228913;28;20287;-76
2023/05/02 07:10:40;;;;;;;1.50;1.50;;;;;;;;;;6190963;28;20297;-76
2023/05/02 07:13:47;;;;;;;1.70;1.70;;;;;;;;;;6189428;28;20445;-79
2023/05/02 07:16:53;;;;;;;1.87;1.87;;;;;;;;;;6191212;28;20300;-75
2023/05/02 07:19:58;;;;;;;1.70;1.60;;;;;;;;;;6190744;28;20300;-75
2023/05/02 07:23:04;;;;;;;2.13;1.90;;;;;;;;;;6190979;28;20297;-75
2023/05/02 07:26:11;;;;;;;1.70;1.70;;;;;;;;;;6190643;28;20521;-75
2023/05/02 07:29:18;;;;;;;1.63;1.63;;;;;;;;;;6205893;28;20293;-76
2023/05/02 07:32:23;;;;;;;1.63;1.63;;;;;;;;;;6191139;28;20293;-75
2023/05/02 07:35:29;;;;;;;1.60;1.60;;;;;;;;;;6190757;28;20309;-74
2023/05/02 07:38:34;;;;;;;1.60;1.60;;;;;;;;;;6190350;28;20589;-76
2023/05/02 07:41:39;;;;;;;2.00;2.00;;;;;;;;;;6190437;28;20479;-75
2023/05/02 07:44:46;;;;;;;1.50;1.50;;;;;;;;;;6205606;28;20304;-74
2023/05/02 07:47:51;;;;;;;1.27;1.27;;;;;;;;;;6205817;28;20289;-74
2023/05/02 07:50:57;;;;;;;1.60;1.60;;;;;;;;;;6185303;28;20321;-74
2023/05/02 07:54:02;;;;;;;1.60;1.60;;;;;;;;;;6199147;28;20292;-75
2023/05/02 07:57:07;;;;;;;1.73;1.63;;;;;;;;;;6214597;28;20617;-75
2023/05/02 08:00:15;;;;;;;1.30;1.30;;;;;;;;;;6213929;28;20303;-74
2023/05/02 08:03:21;;;;;;;1.63;1.63;;;;;;;;;;6214143;28;20304;-76
2023/05/02 08:06:27;;;;;;;1.40;1.40;;;;;;;;;;6214475;28;20296;-74
2023/05/02 08:09:32;;;;;;;1.50;1.50;;;;;;;;;;6213758;28;20296;-75
2023/05/02 08:12:40;;;;;;;1.90;1.73;;;;;;;;;;6196096;28;20605;-75
2023/05/02 08:15:46;;;;;;;1.67;1.67;;;;;;;;;;6189104;28;20310;-75
2023/05/02 08:18:51;;;;;;;1.40;1.40;;;;;;;;;;6189636;28;20309;-75
2023/05/02 08:21:57;;;;;;;1.83;1.67;;;;;;;;;;6190519;28;20293;-76
2023/05/02 08:25:02;;;;;;;1.60;1.60;;;;;;;;;;6189377;28;20301;-75
2023/05/02 08:28:07;;;;;;;2.93;2.10;;;;;;;;;;6189624;28;20292;-75
2023/05/02 08:31:13;;;;;;;1.37;1.37;;;;;;;;;;6189070;28;20293;-75
2023/05/02 08:34:19;;;;;;;1.30;1.30;;;;;;;;;;6189567;28;20474;-75
2023/05/02 08:37:24;;;;;;;1.53;1.23;;;;;;;;;;6188247;28;20289;-75
2023/05/02 08:40:34;;;;;;;1.50;1.50;;;;;;;;;;6188989;28;20300;-75
2023/05/02 08:43:41;;;;;;;1.40;1.40;;;;;;;;;;6189346;28;20269;-75
2023/05/02 08:46:50;;;;;;;1.90;1.33;;;;;;;;;;6189383;28;20537;-75
2023/05/02 08:49:56;;;;;;;1.23;1.23;;;;;;;;;;6187588;28;20311;-75
2023/05/02 08:53:03;;;;;;;1.40;1.30;;;;;;;;;;6197786;28;20297;-76
2023/05/02 08:56:09;;;;;;;1.40;1.40;;;;;;;;;;6212928;28;20300;-75
2023/05/02 08:59:14;;;;;;;1.70;1.70;;;;;;;;;;6212946;28;20459;-75
2023/05/02 09:02:29;;;;;;;1.50;1.40;;;;;;;;;;6213135;28;20297;-74
2023/05/02 09:05:40;;;;;;;1.67;1.67;;;;;;;;;;6212744;28;20293;-75
2023/05/02 09:08:48;;;;;;;2.73;2.13;;;;;;;;;;6212541;28;20300;-75
2023/05/02 09:11:54;;;;;;;1.70;1.60;;;;;;;;;;6200862;28;20297;-74
2023/05/02 09:15:12;;;;;;;3.80;2.60;;;;;;;;;;6186873;28;20305;-75
2023/05/02 09:18:22;;;;;;;3.50;2.33;;;;;;;;;;6188571;28;20594;-76
2023/05/02 09:21:35;;;;;;;5.03;2.10;;;;;;;;;;6188141;28;20305;-75
2023/05/02 09:24:42;;;;;;;2.17;2.00;;;;;;;;;;6203272;28;20297;-76
2023/05/02 09:27:52;;;;;;;3.13;1.80;;;;;;;;;;6188377;28;20293;-75
2023/05/02 09:31:08;;;;;;;1.83;1.83;;;;;;;;;;6187825;28;20293;-76
2023/05/02 09:34:16;;;;;;;3.40;1.70;;;;;;;;;;6203109;28;20601;-75
2023/05/02 09:37:35;;;;;;;2.00;2.00;;;;;;;;;;6188147;28;20289;-76
2023/05/02 09:40:53;;;;;;;1.50;1.50;;;;;;;;;;6186730;28;20301;-75
2023/05/02 09:43:58;;;;;;;1.77;1.67;;;;;;;;;;6187424;28;20294;-75
2023/05/02 09:47:05;;;;;;;2.07;1.60;;;;;;;;;;6188097;28;20301;-76
2023/05/02 09:50:12;;;;;;;1.90;1.50;;;;;;;;;;6187377;28;20333;-75
2023/05/02 09:53:17;;;;;;;2.10;1.60;;;;;;;;;;6198456;28;20292;-75
2023/05/02 09:56:23;;;;;;;1.75;1.50;;;;;;;;;;6211497;28;20288;-76
2023/05/02 09:59:30;;;;;;;1.67;1.67;;;;;;;;;;6226338;28;20285;-76
2023/05/02 10:02:35;;;;;;;1.70;1.60;;;;;;;;;;6211022;28;20305;-76
2023/05/02 10:05:44;;;;;;;2.80;1.35;;;;;;;;;;6211675;28;20584;-75
2023/05/02 10:08:49;;;;;;;1.70;1.60;;;;;;;;;;6211863;28;20484;-76
2023/05/02 10:11:56;;;;;;;1.92;1.70;;;;;;;;;;6199272;28;20427;-75
2023/05/02 10:15:04;;;;;;;5.38;1.52;;;;;;;;;;6202166;28;20334;-76
2023/05/02 10:18:14;;;;;;;3.05;1.42;;;;;;;;;;6187666;28;20297;-74
2023/05/02 10:21:27;;;;;;;1.73;1.63;;;;;;;;;;6187263;28;20290;-75
2023/05/02 10:24:33;;;;;;;1.58;1.10;;;;;;;;;;6186462;28;20289;-75
2023/05/02 10:27:38;;;;;;;4.32;1.55;;;;;;;;;;6187688;28;20298;-75
2023/05/02 10:30:44;;;;;;;4.57;1.60;;;;;;;;;;6186790;28;20336;-76
2023/05/02 10:33:51;;;;;;;2.33;1.60;;;;;;;;;;6186956;28;20293;-75
2023/05/02 10:37:00;;;;;;;9.70;1.90;;;;;;;;;;6187148;28;20305;-75
2023/05/02 10:40:07;;;;;;;1.40;1.40;;;;;;;;;;6187059;28;20302;-75
2023/05/02 10:43:15;;;;;;;2.55;1.80;;;;;;;;;;6186906;28;20298;-75
2023/05/02 10:46:34;;;;;;;3.45;1.45;;;;;;;;;;6186806;28;20301;-75
2023/05/02 10:49:51;;;;;;;2.60;1.65;;;;;;;;;;6187694;28;20297;-74
2023/05/02 10:52:58;;;;;;;1.85;1.40;;;;;;;;;;6194537;28;20561;-75
2023/05/02 10:56:11;;;;;;;1.65;1.25;;;;;;;;;;6210509;28;20288;-76
2023/05/02 10:59:30;;;;;;;1.85;1.20;;;;;;;;;;6210434;28;20301;-76
2023/05/02 11:02:48;;;;;;;1.63;1.35;;;;;;;;;;6225631;28;20475;-76
2023/05/02 11:06:06;;;;;;;1.35;1.25;;;;;;;;;;6211057;28;20294;-75
2023/05/02 11:09:35;;;;;;;2.97;1.83;;;;;;;;;;6210524;28;20293;-76
2023/05/02 11:12:47;;;;;;;4.55;1.40;;;;;;;;;;6193106;28;20297;-75
2023/05/02 11:16:00;;;;;;;2.92;1.33;;;;;;;;;;6206205;28;20293;-75
2023/05/02 11:19:05;;;;;;;4.88;1.55;;;;;;;;;;6190590;28;20298;-74
2023/05/02 11:22:32;;;;;;;1.20;1.20;;;;;;;;;;6191921;28;20318;-75
2023/05/02 11:25:42;;;;;;;2.42;1.30;;;;;;;;;;6189797;28;20302;-75
2023/05/02 11:28:47;;;;;;;1.60;1.50;;;;;;;;;;6190897;28;20562;-74
2023/05/02 11:31:56;;;;;;;6.35;1.60;;;;;;;;;;6191202;28;20317;-75
2023/05/02 11:35:03;;;;;;;1.30;1.20;;;;;;;;;;6190624;28;20306;-77
2023/05/02 11:38:11;;;;;;;1.95;1.50;;;;;;;;;;6190822;28;20392;-75
2023/05/02 11:41:18;;;;;;;1.70;1.30;;;;;;;;;;6189972;28;20293;-75
2023/05/02 11:44:23;;;;;;;1.50;1.40;;;;;;;;;;6190341;28;20329;-75
2023/05/02 11:47:29;;;;;;;1.27;1.25;;;;;;;;;;6205696;28;20298;-74
2023/05/02 11:50:39;;;;;;;2.33;1.38;;;;;;;;;;6205442;28;20293;-75
2023/05/02 11:53:52;;;;;;;1.25;1.25;;;;;;;;;;6205054;28;20297;-76
2023/05/02 11:57:01;;;;;;;1.65;1.38;;;;;;;;;;6214857;28;20301;-75
2023/05/02 12:00:09;;;;;;;3.67;1.10;;;;;;;;;;6214131;28;20297;-76
2023/05/02 12:03:29;;;;;;;1.58;1.20;;;;;;;;;;6213868;28;20305;-76
2023/05/02 12:06:35;;;;;;;3.50;1.20;;;;;;;;;;6213737;28;20312;-75
2023/05/02 12:09:51;;;;;;;5.57;1.20;;;;;;;;;;6214418;28;20309;-75
2023/05/02 12:13:05;;;;;;;1.20;1.20;;;;;;;;;;6193575;28;20295;-75
2023/05/02 12:16:13;;;;;;;2.58;2.15;;;;;;;;;;6190028;28;20297;-75
2023/05/02 12:19:18;;;;;;;1.73;1.23;;;;;;;;;;6189478;28;20484;-74
2023/05/02 12:22:24;;;;;;;1.00;1.00;;;;;;;;;;6188588;28;20582;-75
2023/05/02 12:25:30;;;;;;;1.83;1.10;;;;;;;;;;6188485;28;20297;-75
2023/05/02 12:28:49;;;;;;;2.25;1.00;;;;;;;;;;6190462;28;20274;-76
2023/05/02 12:31:54;;;;;;;3.78;1.27;;;;;;;;;;6189931;28;20290;-75
2023/05/02 12:35:00;;;;;;;1.02;1.02;;;;;;;;;;6204694;28;20289;-76
2023/05/02 12:38:10;;;;;;;3.03;1.10;;;;;;;;;;6189408;28;20297;-74
2023/05/02 12:41:16;;;;;;;1.20;1.08;;;;;;;;;;6204227;28;20294;-75
2023/05/02 12:44:37;;;;;;;0.90;0.90;;;;;;;;;;6189119;28;20302;-75
2023/05/02 12:47:46;;;;;;;1.20;1.15;;;;;;;;;;6189525;28;20586;-74
2023/05/02 12:50:51;;;;;;;0.98;0.98;;;;;;;;;;6188829;28;20290;-75
2023/05/02 12:53:56;;;;;;;1.95;0.98;;;;;;;;;;6204556;28;20549;-74
2023/05/02 12:57:01;;;;;;;1.05;1.05;;;;;;;;;;6213489;28;20293;-76
2023/05/02 13:00:10;;;;;;;1.08;1.08;;;;;;;;;;6212808;28;20301;-74
2023/05/02 13:03:15;;;;;;;1.25;1.10;;;;;;;;;;6213345;28;20305;-74
2023/05/02 13:06:20;;;;;;;1.42;1.00;;;;;;;;;;6211412;28;20491;-76
2023/05/02 13:09:26;;;;;;;0.90;0.90;;;;;;;;;;6227467;28;20297;-75
2023/05/02 13:12:31;;;;;;;1.02;1.00;;;;;;;;;;6195589;28;20294;-74
2023/05/02 13:15:37;;;;;;;5.45;1.30;;;;;;;;;;6188130;28;20318;-74
2023/05/02 13:18:43;;;;;;;3.80;1.20;;;;;;;;;;6187985;28;20485;-74
2023/05/02 13:21:52;;;;;;;5.80;1.10;;;;;;;;;;6188496;28;20314;-74
2023/05/02 13:24:57;;;;;;;0.90;0.90;;;;;;;;;;6188131;28;20597;-75
2023/05/02 13:28:02;;;;;;;3.50;0.90;;;;;;;;;;6188513;28;20326;-75
2023/05/02 13:31:10;;;;;;;5.57;1.23;;;;;;;;;;6187752;28;20493;-73
2023/05/02 13:34:15;;;;;;;1.02;1.00;;;;;;;;;;6187833;28;20298;-73
2023/05/02 13:37:20;;;;;;;1.65;0.93;;;;;;;;;;6187218;28;20379;-73
2023/05/02 13:40:25;;;;;;;1.55;0.88;;;;;;;;;;6187504;28;20302;-74
2023/05/02 13:43:31;;;;;;;4.13;0.82;;;;;;;;;;6187533;28;20270;-73
2023/05/02 13:46:37;;;;;;;2.25;1.20;;;;;;;;;;6186965;28;20275;-75
2023/05/02 13:49:43;;;;;;;0.95;0.95;;;;;;;;;;6187450;28;20301;-75
2023/05/02 13:52:48;;;;;;;2.75;1.00;;;;;;;;;;6194180;28;20293;-75
2023/05/02 13:55:53;;;;;;;1.05;1.05;;;;;;;;;;6211479;28;20300;-75
2023/05/02 13:58:58;;;;;;;0.80;0.80;;;;;;;;;;6211179;28;20450;-76
2023/05/02 14:02:06;;;;;;;1.00;1.00;;;;;;;;;;6211849;28;20297;-76
2023/05/02 14:05:14;;;;;;;0.90;0.90;;;;;;;;;;6211850;28;20297;-76
2023/05/02 14:08:19;;;;;;;0.75;0.70;;;;;;;;;;6226870;28;20296;-75
2023/05/02 14:11:24;;;;;;;0.90;0.90;;;;;;;;;;6202698;28;20298;-75
2023/05/02 14:14:29;;;;;;;1.35;0.95;;;;;;;;;;6186828;28;20286;-73
2023/05/02 14:17:36;;;;;;;0.73;0.73;;;;;;;;;;6187604;28;20286;-73
2023/05/02 14:20:41;;;;;;;0.70;0.70;;;;;;;;;;6187209;28;20690;-73
2023/05/02 14:23:46;;;;;;;0.75;0.75;;;;;;;;;;6186952;28;20301;-76
2023/05/02 14:26:52;;;;;;;2.40;1.05;;;;;;;;;;6186190;28;20485;-74
2023/05/02 14:29:57;;;;;;;0.70;0.70;;;;;;;;;;6186925;28;20301;-74
2023/05/02 14:33:04;;;;;;;1.75;0.93;;;;;;;;;;6187309;28;20297;-74
2023/05/02 14:36:11;;;;;;;0.90;0.90;;;;;;;;;;6187888;28;20306;-73
2023/05/02 14:39:17;;;;;;;1.58;0.80;;;;;;;;;;6186590;28;20293;-76
2023/05/02 14:42:22;;;;;;;0.93;0.93;;;;;;;;;;6186914;28;20293;-74
2023/05/02 14:45:27;;;;;;;1.02;0.88;;;;;;;;;;6186827;28;20289;-75
2023/05/02 14:48:33;;;;;;;1.70;0.82;;;;;;;;;;6189290;28;20297;-75
2023/05/02 14:51:39;;;;;;;1.45;0.90;;;;;;;;;;6191387;28;20285;-74
2023/05/02 14:54:44;;;;;;;0.93;0.80;;;;;;;;;;6213841;28;20480;-74
2023/05/02 14:57:49;;;;;;;1.70;0.93;;;;;;;;;;6215849;28;20296;-76
2023/05/02 15:00:54;;;;;;;3.13;1.20;;;;;;;;;;6229976;28;20308;-76
2023/05/02 15:04:01;;;;;;;1.70;1.05;;;;;;;;;;6215339;28;20300;-75
2023/05/02 15:07:11;;;;;;;4.32;0.93;;;;;;;;;;6216116;28;20305;-73
2023/05/02 15:10:16;;;;;;;3.63;0.80;;;;;;;;;;6215127;28;20305;-75
2023/05/02 15:13:22;;;;;;;0.70;0.70;;;;;;;;;;6167587;28;20307;-75
2023/05/02 15:16:27;;;;;;;1.80;0.98;;;;;;;;;;6165946;28;20294;-73
2023/05/02 15:19:34;;;;;;;0.80;0.80;;;;;;;;;;6166681;28;20463;-72
2023/05/02 15:22:41;;;;;;;0.93;0.93;;;;;;;;;;6165820;28;20270;-74
2023/05/02 15:25:47;;;;;;;4.68;0.85;;;;;;;;;;6167037;28;20294;-75
2023/05/02 15:28:52;;;;;;;0.80;0.80;;;;;;;;;;6167058;28;20307;-75
2023/05/02 15:31:57;;;;;;;0.90;0.90;;;;;;;;;;6167323;28;20450;-74
2023/05/02 15:35:05;;;;;;;3.85;0.82;;;;;;;;;;6166959;28;20290;-75
2023/05/02 15:38:13;;;;;;;1.17;0.80;;;;;;;;;;6167204;28;20298;-74
2023/05/02 15:41:18;;;;;;;0.80;0.80;;;;;;;;;;6166705;28;20294;-73
2023/05/02 15:44:24;;;;;;;0.90;0.90;;;;;;;;;;6166268;28;20445;-73
2023/05/02 15:47:30;;;;;;;3.17;1.27;;;;;;;;;;6166649;28;20294;-72
2023/05/02 15:50:37;;;;;;;2.72;0.77;;;;;;;;;;6166198;28;20315;-74
2023/05/02 15:53:43;;;;;;;0.82;0.82;;;;;;;;;;6193992;28;20297;-74
2023/05/02 15:56:49;;;;;;;2.50;1.50;;;;;;;;;;6214885;28;20317;-74
2023/05/02 15:59:54;;;;;;;0.90;0.90;;;;;;;;;;6211502;28;20297;-75
2023/05/02 16:02:59;;;;;;;0.90;0.88;;;;;;;;;;6214100;28;20589;-74
2023/05/02 16:06:09;;;;;;;0.80;0.80;;;;;;;;;;6214444;28;20305;-74
2023/05/02 16:09:14;;;;;;;1.95;1.02;;;;;;;;;;6213952;28;20605;-74
2023/05/02 16:12:19;;;;;;;4.95;0.80;;;;;;;;;;6214190;28;20301;-76
2023/05/02 16:15:25;;;;;;;0.65;0.65;;;;;;;;;;6212996;28;20304;-75
2023/05/02 16:18:30;;;;;;;1.45;0.88;;;;;;;;;;6214636;28;20606;-75
2023/05/02 16:21:37;;;;;;;1.30;0.98;;;;;;;;;;6213430;28;20298;-75
2023/05/02 16:24:43;;;;;;;0.85;0.85;;;;;;;;;;6213719;28;20297;-75
2023/05/02 16:27:48;;;;;;;0.90;0.90;;;;;;;;;;6213847;28;20297;-76
2023/05/02 16:30:54;;;;;;;4.43;1.13;;;;;;;;;;6213202;28;20300;-77
2023/05/02 16:33:59;;;;;;;0.70;0.70;;;;;;;;;;6213656;28;20289;-77
2023/05/02 16:37:06;;;;;;;1.95;0.90;;;;;;;;;;6214015;28;20297;-78
2023/05/02 16:40:13;;;;;;;1.30;0.90;;;;;;;;;;6213504;28;20321;-75
2023/05/02 16:43:18;;;;;;;0.82;0.82;;;;;;;;;;6211982;28;20301;-76
2023/05/02 16:46:23;;;;;;;0.88;0.88;;;;;;;;;;6212126;28;20550;-75
2023/05/02 16:49:29;;;;;;;0.98;0.70;;;;;;;;;;6212729;28;20293;-77
2023/05/02 16:52:36;;;;;;;0.70;0.70;;;;;;;;;;6208916;28;20293;-75
2023/05/02 16:55:42;;;;;;;0.70;0.70;;;;;;;;;;6187507;28;20297;-76
2023/05/02 16:58:47;;;;;;;7.25;1.55;;;;;;;;;;6203746;28;20479;-76
2023/05/02 17:01:53;;;;;;;0.90;0.90;;;;;;;;;;6190272;28;20301;-75
2023/05/02 17:04:58;;;;;;;1.00;1.00;;;;;;;;;;6217662;28;20320;-76
2023/05/02 17:08:05;;;;;;;2.58;1.02;;;;;;;;;;6237254;28;20289;-77
2023/05/02 17:11:13;;;;;;;1.25;1.00;;;;;;;;;;6237015;28;20300;-74
2023/05/02 17:14:19;;;;;;;2.92;0.90;;;;;;;;;;6236692;28;20292;-76
2023/05/02 17:17:24;;;;;;;2.10;0.90;;;;;;;;;;6238303;28;20304;-77
2023/05/02 17:20:30;;;;;;;3.28;1.20;;;;;;;;;;6236574;28;20304;-75
2023/05/02 17:23:37;;;;;;;1.17;1.15;;;;;;;;;;6236833;28;20323;-76
2023/05/02 17:26:42;;;;;;;1.17;1.17;;;;;;;;;;6237324;28;20284;-76
2023/05/02 17:29:48;;;;;;;2.33;1.00;;;;;;;;;;6219148;28;20303;-78
2023/05/02 17:32:57;;;;;;;2.83;1.00;;;;;;;;;;6236761;28;20474;-77
2023/05/02 17:36:03;;;;;;;3.30;0.82;;;;;;;;;;6236434;28;20313;-76
2023/05/02 17:39:12;;;;;;;1.60;0.90;;;;;;;;;;6236678;28;20308;-77
2023/05/02 17:42:17;;;;;;;1.27;1.27;;;;;;;;;;6236381;28;20296;-78
2023/05/02 17:45:22;;;;;;;1.85;1.10;;;;;;;;;;6218787;28;20292;-77
2023/05/02 17:48:27;;;;;;;1.48;1.02;;;;;;;;;;6236428;28;20345;-77
2023/05/02 17:51:36;;;;;;;4.13;1.20;;;;;;;;;;6226094;28;20228;-77
2023/05/02 17:54:43;;;;;;;1.63;1.38;;;;;;;;;;6236298;28;20296;-77
2023/05/02 17:57:50;;;;;;;7.25;1.60;;;;;;;;;;6247161;28;20308;-76
2023/05/02 18:00:55;;;;;;;17.38;1.67;;;;;;;;;;6235963;28;20300;-75
2023/05/02 18:04:02;;;;;;;10.90;1.73;;;;;;;;;;6235721;28;20292;-75
2023/05/02 18:07:10;;;;;;;16.85;1.60;;;;;;;;;;6251708;28;20364;-75
2023/05/02 18:10:16;;;;;;;9.07;2.08;;;;;;;;;;6236136;28;20304;-76
2023/05/02 18:13:21;;;;;;;19.35;1.70;;;;;;;;;;6211567;28;20300;-76
2023/05/02 18:16:28;;;;;;;7.00;1.75;;;;;;;;;;6210447;28;20297;-75
2023/05/02 18:19:34;;;;;;;4.28;1.23;;;;;;;;;;6211347;28;20308;-76
2023/05/02 18:22:40;;;;;;;13.15;1.67;;;;;;;;;;6210979;28;20292;-79
2023/05/02 18:25:46;;;;;;;12.65;2.38;;;;;;;;;;6210112;28;20292;-74
2023/05/02 18:28:52;;;;;;;6.22;1.75;;;;;;;;;;6226278;28;20313;-76
2023/05/02 18:31:58;;;;;;;6.22;1.58;;;;;;;;;;6212214;28;20388;-78
2023/05/02 18:35:03;;;;;;;2.10;1.27;;;;;;;;;;6212103;28;20302;-79
2023/05/02 18:38:11;;;;;;;11.13;1.60;;;;;;;;;;6212649;28;20289;-77
2023/05/02 18:41:18;;;;;;;7.40;2.05;;;;;;;;;;6211545;28;20285;-79
2023/05/02 18:44:23;;;;;;;22.17;2.45;;;;;;;;;;6210578;28;20293;-78